Terminal Aerodrome Forecast
Issued by NWS

Home | Current Version | Previous Version | Text Only | Print | Product List | Glossary Off
Versions: 1 2 3 4 5 6 7 8 9 10 11 12 13 14 15 16 17 18

000
FTUS43 KGRB 221908 AAA
TAFATW
TAF AMD
KATW 221908Z 2219/2318 22004KT 1/4SM -DZ FG OVC002
     FM222000 23004KT 3SM BR OVC003
     FM222300 29002KT 1SM BR BKN002
     FM230200 30002KT 1/4SM -DZ FG OVC002
     FM231500 32004KT 1/2SM FG OVC003
     FM231700 33005KT 3SM BR OVC006=

USA.gov is the U.S. government's official web portal to all federal, state and local government web resources and services.